sensor_id;sensor_type;location;lat;lon;timestamp;P1;durP1;ratioP1;P2;durP2;ratioP2
7657;SDS011;8462;53.156;8.220;2023-03-23T00:01:48;8.60;;;6.00;;
7657;SDS011;8462;53.156;8.220;2023-03-23T00:04:15;8.37;;;6.60;;
7657;SDS011;8462;53.156;8.220;2023-03-23T00:06:42;7.33;;;6.30;;
7657;SDS011;8462;53.156;8.220;2023-03-23T00:09:10;8.53;;;6.73;;
7657;SDS011;8462;53.156;8.220;2023-03-23T00:11:40;9.60;;;7.37;;
7657;SDS011;8462;53.156;8.220;2023-03-23T00:14:08;8.97;;;6.63;;
7657;SDS011;8462;53.156;8.220;2023-03-23T00:16:38;10.73;;;7.20;;
7657;SDS011;8462;53.156;8.220;2023-03-23T00:19:09;8.67;;;6.17;;
7657;SDS011;8462;53.156;8.220;2023-03-23T00:21:39;7.30;;;5.83;;
7657;SDS011;8462;53.156;8.220;2023-03-23T00:24:07;9.33;;;6.20;;
7657;SDS011;8462;53.156;8.220;2023-03-23T00:26:36;9.00;;;6.70;;
7657;SDS011;8462;53.156;8.220;2023-03-23T00:29:06;8.33;;;6.10;;
7657;SDS011;8462;53.156;8.220;2023-03-23T00:31:38;10.03;;;6.03;;
7657;SDS011;8462;53.156;8.220;2023-03-23T00:34:05;7.90;;;5.80;;
7657;SDS011;8462;53.156;8.220;2023-03-23T00:36:36;9.03;;;6.37;;
7657;SDS011;8462;53.156;8.220;2023-03-23T00:39:09;8.20;;;6.37;;
7657;SDS011;8462;53.156;8.220;2023-03-23T00:41:36;8.03;;;5.93;;
7657;SDS011;8462;53.156;8.220;2023-03-23T00:44:03;8.20;;;6.17;;
7657;SDS011;8462;53.156;8.220;2023-03-23T00:46:33;8.33;;;6.00;;
7657;SDS011;8462;53.156;8.220;2023-03-23T00:49:10;7.97;;;6.50;;
7657;SDS011;8462;53.156;8.220;2023-03-23T00:51:40;7.90;;;6.77;;
7657;SDS011;8462;53.156;8.220;2023-03-23T00:54:07;9.30;;;6.27;;
7657;SDS011;8462;53.156;8.220;2023-03-23T00:56:35;7.97;;;6.60;;
7657;SDS011;8462;53.156;8.220;2023-03-23T00:59:04;9.73;;;6.50;;
7657;SDS011;8462;53.156;8.220;2023-03-23T01:01:31;8.07;;;5.83;;
7657;SDS011;8462;53.156;8.220;2023-03-23T01:03:58;8.77;;;5.83;;
7657;SDS011;8462;53.156;8.220;2023-03-23T01:06:29;9.20;;;6.10;;
7657;SDS011;8462;53.156;8.220;2023-03-23T01:08:58;12.10;;;6.23;;
7657;SDS011;8462;53.156;8.220;2023-03-23T01:11:25;8.20;;;6.40;;
7657;SDS011;8462;53.156;8.220;2023-03-23T01:13:52;7.80;;;5.83;;
7657;SDS011;8462;53.156;8.220;2023-03-23T01:16:19;8.23;;;6.27;;
7657;SDS011;8462;53.156;8.220;2023-03-23T01:18:46;9.57;;;5.77;;
7657;SDS011;8462;53.156;8.220;2023-03-23T01:21:14;9.10;;;5.87;;
7657;SDS011;8462;53.156;8.220;2023-03-23T01:23:42;8.50;;;5.90;;
7657;SDS011;8462;53.156;8.220;2023-03-23T01:26:11;8.13;;;6.97;;
7657;SDS011;8462;53.156;8.220;2023-03-23T01:28:40;6.33;;;5.03;;
7657;SDS011;8462;53.156;8.220;2023-03-23T01:31:08;9.23;;;5.80;;
7657;SDS011;8462;53.156;8.220;2023-03-23T01:33:37;8.60;;;6.13;;
7657;SDS011;8462;53.156;8.220;2023-03-23T01:36:07;7.47;;;5.40;;
7657;SDS011;8462;53.156;8.220;2023-03-23T01:38:36;8.57;;;5.90;;
7657;SDS011;8462;53.156;8.220;2023-03-23T01:41:04;7.57;;;5.90;;
7657;SDS011;8462;53.156;8.220;2023-03-23T01:43:33;8.20;;;5.87;;
7657;SDS011;8462;53.156;8.220;2023-03-23T01:46:00;8.73;;;5.60;;
7657;SDS011;8462;53.156;8.220;2023-03-23T01:48:27;7.33;;;5.23;;
7657;SDS011;8462;53.156;8.220;2023-03-23T01:50:58;6.83;;;5.30;;
7657;SDS011;8462;53.156;8.220;2023-03-23T01:53:30;11.57;;;5.70;;
7657;SDS011;8462;53.156;8.220;2023-03-23T01:56:01;6.07;;;4.90;;
7657;SDS011;8462;53.156;8.220;2023-03-23T01:58:30;6.87;;;5.00;;
7657;SDS011;8462;53.156;8.220;2023-03-23T02:01:01;9.17;;;5.20;;
7657;SDS011;8462;53.156;8.220;2023-03-23T02:03:31;5.83;;;5.03;;
7657;SDS011;8462;53.156;8.220;2023-03-23T02:06:01;9.60;;;5.13;;
7657;SDS011;8462;53.156;8.220;2023-03-23T02:08:55;6.97;;;4.77;;
7657;SDS011;8462;53.156;8.220;2023-03-23T02:11:22;8.53;;;5.17;;
7657;SDS011;8462;53.156;8.220;2023-03-23T02:13:49;8.30;;;5.47;;
7657;SDS011;8462;53.156;8.220;2023-03-23T02:16:21;5.30;;;4.50;;
7657;SDS011;8462;53.156;8.220;2023-03-23T02:18:57;6.20;;;4.40;;
7657;SDS011;8462;53.156;8.220;2023-03-23T02:21:52;6.23;;;4.87;;
7657;SDS011;8462;53.156;8.220;2023-03-23T02:27:35;6.10;;;4.50;;
7657;SDS011;8462;53.156;8.220;2023-03-23T02:30:40;8.37;;;4.80;;
7657;SDS011;8462;53.156;8.220;2023-03-23T02:33:41;7.13;;;4.23;;
7657;SDS011;8462;53.156;8.220;2023-03-23T02:36:18;5.33;;;4.23;;
7657;SDS011;8462;53.156;8.220;2023-03-23T02:38:53;5.80;;;4.20;;
7657;SDS011;8462;53.156;8.220;2023-03-23T02:41:25;6.80;;;3.73;;
7657;SDS011;8462;53.156;8.220;2023-03-23T02:43:57;7.60;;;4.23;;
7657;SDS011;8462;53.156;8.220;2023-03-23T02:46:25;5.03;;;3.93;;
7657;SDS011;8462;53.156;8.220;2023-03-23T02:48:54;6.00;;;3.63;;
7657;SDS011;8462;53.156;8.220;2023-03-23T02:51:23;3.93;;;3.53;;
7657;SDS011;8462;53.156;8.220;2023-03-23T02:53:55;4.80;;;3.73;;
7657;SDS011;8462;53.156;8.220;2023-03-23T02:56:23;5.13;;;3.57;;
7657;SDS011;8462;53.156;8.220;2023-03-23T02:58:53;4.50;;;3.40;;
7657;SDS011;8462;53.156;8.220;2023-03-23T03:04:32;6.50;;;4.07;;
7657;SDS011;8462;53.156;8.220;2023-03-23T03:07:03;5.17;;;3.50;;
7657;SDS011;8462;53.156;8.220;2023-03-23T03:09:47;5.33;;;3.57;;
7657;SDS011;8462;53.156;8.220;2023-03-23T03:12:19;5.37;;;3.87;;
7657;SDS011;8462;53.156;8.220;2023-03-23T03:14:51;9.50;;;3.73;;
7657;SDS011;8462;53.156;8.220;2023-03-23T03:17:24;5.80;;;3.57;;
7657;SDS011;8462;53.156;8.220;2023-03-23T03:19:54;5.30;;;3.97;;
7657;SDS011;8462;53.156;8.220;2023-03-23T03:22:25;5.83;;;3.47;;
7657;SDS011;8462;53.156;8.220;2023-03-23T03:24:55;7.47;;;3.47;;
7657;SDS011;8462;53.156;8.220;2023-03-23T03:27:24;5.17;;;3.57;;
7657;SDS011;8462;53.156;8.220;2023-03-23T03:30:05;7.40;;;3.67;;
7657;SDS011;8462;53.156;8.220;2023-03-23T03:32:41;4.27;;;3.53;;
7657;SDS011;8462;53.156;8.220;2023-03-23T03:35:13;5.47;;;3.40;;
7657;SDS011;8462;53.156;8.220;2023-03-23T03:37:40;8.47;;;3.60;;
7657;SDS011;8462;53.156;8.220;2023-03-23T03:40:09;5.23;;;4.00;;
7657;SDS011;8462;53.156;8.220;2023-03-23T03:42:40;4.17;;;3.07;;
7657;SDS011;8462;53.156;8.220;2023-03-23T03:45:09;8.17;;;3.70;;
7657;SDS011;8462;53.156;8.220;2023-03-23T03:47:37;4.23;;;2.80;;
7657;SDS011;8462;53.156;8.220;2023-03-23T03:50:04;8.03;;;3.20;;
7657;SDS011;8462;53.156;8.220;2023-03-23T03:52:33;4.73;;;2.97;;
7657;SDS011;8462;53.156;8.220;2023-03-23T03:55:00;4.90;;;3.77;;
7657;SDS011;8462;53.156;8.220;2023-03-23T03:57:30;7.13;;;3.60;;
7657;SDS011;8462;53.156;8.220;2023-03-23T04:00:04;3.80;;;2.97;;
7657;SDS011;8462;53.156;8.220;2023-03-23T04:02:39;5.17;;;3.70;;
7657;SDS011;8462;53.156;8.220;2023-03-23T04:05:08;4.10;;;3.03;;
7657;SDS011;8462;53.156;8.220;2023-03-23T04:07:38;5.33;;;3.37;;
7657;SDS011;8462;53.156;8.220;2023-03-23T04:10:06;6.50;;;3.80;;
7657;SDS011;8462;53.156;8.220;2023-03-23T04:12:36;5.03;;;3.37;;
7657;SDS011;8462;53.156;8.220;2023-03-23T04:15:22;4.03;;;3.10;;
7657;SDS011;8462;53.156;8.220;2023-03-23T04:17:49;4.50;;;3.37;;
7657;SDS011;8462;53.156;8.220;2023-03-23T04:20:16;6.27;;;3.83;;
7657;SDS011;8462;53.156;8.220;2023-03-23T04:22:49;8.97;;;4.00;;
7657;SDS011;8462;53.156;8.220;2023-03-23T04:25:21;5.87;;;4.00;;
7657;SDS011;8462;53.156;8.220;2023-03-23T04:27:51;6.30;;;3.80;;
7657;SDS011;8462;53.156;8.220;2023-03-23T04:30:23;9.07;;;4.30;;
7657;SDS011;8462;53.156;8.220;2023-03-23T04:33:08;6.17;;;4.17;;
7657;SDS011;8462;53.156;8.220;2023-03-23T04:35:40;7.67;;;4.77;;
7657;SDS011;8462;53.156;8.220;2023-03-23T04:38:23;8.87;;;4.27;;
7657;SDS011;8462;53.156;8.220;2023-03-23T04:40:57;7.20;;;3.97;;
7657;SDS011;8462;53.156;8.220;2023-03-23T04:43:39;4.77;;;3.70;;
7657;SDS011;8462;53.156;8.220;2023-03-23T04:46:18;4.93;;;3.60;;
7657;SDS011;8462;53.156;8.220;2023-03-23T04:48:47;6.50;;;4.10;;
7657;SDS011;8462;53.156;8.220;2023-03-23T04:51:22;5.07;;;4.07;;
7657;SDS011;8462;53.156;8.220;2023-03-23T04:53:52;7.03;;;4.03;;
7657;SDS011;8462;53.156;8.220;2023-03-23T04:56:19;7.87;;;4.13;;
7657;SDS011;8462;53.156;8.220;2023-03-23T04:58:46;9.03;;;4.20;;
7657;SDS011;8462;53.156;8.220;2023-03-23T05:01:32;9.10;;;3.60;;
7657;SDS011;8462;53.156;8.220;2023-03-23T05:04:16;7.90;;;3.87;;
7657;SDS011;8462;53.156;8.220;2023-03-23T05:07:04;5.73;;;3.43;;
7657;SDS011;8462;53.156;8.220;2023-03-23T05:09:36;5.73;;;3.90;;
7657;SDS011;8462;53.156;8.220;2023-03-23T05:12:04;6.07;;;3.83;;
7657;SDS011;8462;53.156;8.220;2023-03-23T05:14:33;6.60;;;3.90;;
7657;SDS011;8462;53.156;8.220;2023-03-23T05:17:06;6.47;;;4.23;;
7657;SDS011;8462;53.156;8.220;2023-03-23T05:19:34;6.20;;;3.93;;
7657;SDS011;8462;53.156;8.220;2023-03-23T05:22:12;8.73;;;4.00;;
7657;SDS011;8462;53.156;8.220;2023-03-23T05:24:46;5.97;;;3.80;;
7657;SDS011;8462;53.156;8.220;2023-03-23T05:27:16;6.03;;;4.10;;
7657;SDS011;8462;53.156;8.220;2023-03-23T05:29:47;5.93;;;3.90;;
7657;SDS011;8462;53.156;8.220;2023-03-23T05:32:14;5.57;;;3.50;;
7657;SDS011;8462;53.156;8.220;2023-03-23T05:34:43;4.80;;;3.50;;
7657;SDS011;8462;53.156;8.220;2023-03-23T05:37:10;4.27;;;3.60;;
7657;SDS011;8462;53.156;8.220;2023-03-23T05:39:58;4.47;;;3.73;;
7657;SDS011;8462;53.156;8.220;2023-03-23T05:42:33;5.33;;;3.57;;
7657;SDS011;8462;53.156;8.220;2023-03-23T05:45:24;4.53;;;3.70;;
7657;SDS011;8462;53.156;8.220;2023-03-23T05:47:51;4.63;;;3.60;;
7657;SDS011;8462;53.156;8.220;2023-03-23T05:50:20;7.20;;;3.80;;
7657;SDS011;8462;53.156;8.220;2023-03-23T05:52:47;5.33;;;4.00;;
7657;SDS011;8462;53.156;8.220;2023-03-23T05:55:17;6.63;;;3.67;;
7657;SDS011;8462;53.156;8.220;2023-03-23T05:57:51;4.60;;;4.00;;
7657;SDS011;8462;53.156;8.220;2023-03-23T06:00:27;5.27;;;3.77;;
7657;SDS011;8462;53.156;8.220;2023-03-23T06:03:05;5.77;;;3.80;;
7657;SDS011;8462;53.156;8.220;2023-03-23T06:08:13;5.07;;;3.57;;
7657;SDS011;8462;53.156;8.220;2023-03-23T06:10:41;7.13;;;4.33;;
7657;SDS011;8462;53.156;8.220;2023-03-23T06:13:10;4.70;;;3.40;;
7657;SDS011;8462;53.156;8.220;2023-03-23T06:15:45;5.90;;;3.53;;
7657;SDS011;8462;53.156;8.220;2023-03-23T06:18:18;5.63;;;3.73;;
7657;SDS011;8462;53.156;8.220;2023-03-23T06:21:09;5.37;;;3.47;;
7657;SDS011;8462;53.156;8.220;2023-03-23T06:23:46;6.00;;;3.90;;
7657;SDS011;8462;53.156;8.220;2023-03-23T06:26:18;8.33;;;3.83;;
7657;SDS011;8462;53.156;8.220;2023-03-23T06:28:51;6.83;;;3.87;;
7657;SDS011;8462;53.156;8.220;2023-03-23T06:31:18;6.17;;;3.23;;
7657;SDS011;8462;53.156;8.220;2023-03-23T06:33:46;8.33;;;3.87;;
7657;SDS011;8462;53.156;8.220;2023-03-23T06:36:34;4.83;;;3.93;;
7657;SDS011;8462;53.156;8.220;2023-03-23T06:39:11;7.67;;;4.10;;
7657;SDS011;8462;53.156;8.220;2023-03-23T06:42:10;6.17;;;3.87;;
7657;SDS011;8462;53.156;8.220;2023-03-23T06:44:45;6.30;;;3.70;;
7657;SDS011;8462;53.156;8.220;2023-03-23T06:47:13;8.33;;;3.50;;
7657;SDS011;8462;53.156;8.220;2023-03-23T06:49:45;6.27;;;4.10;;
7657;SDS011;8462;53.156;8.220;2023-03-23T06:52:18;5.23;;;3.70;;
7657;SDS011;8462;53.156;8.220;2023-03-23T06:54:46;5.93;;;3.60;;
7657;SDS011;8462;53.156;8.220;2023-03-23T06:57:14;8.73;;;3.30;;
7657;SDS011;8462;53.156;8.220;2023-03-23T06:59:44;6.27;;;2.80;;
7657;SDS011;8462;53.156;8.220;2023-03-23T07:02:12;3.97;;;2.40;;
7657;SDS011;8462;53.156;8.220;2023-03-23T07:04:41;3.97;;;2.27;;
7657;SDS011;8462;53.156;8.220;2023-03-23T07:07:14;4.80;;;2.57;;
7657;SDS011;8462;53.156;8.220;2023-03-23T07:09:57;3.67;;;2.00;;
7657;SDS011;8462;53.156;8.220;2023-03-23T07:12:26;5.20;;;2.07;;
7657;SDS011;8462;53.156;8.220;2023-03-23T07:14:56;5.70;;;1.97;;
7657;SDS011;8462;53.156;8.220;2023-03-23T07:17:24;5.53;;;1.97;;
7657;SDS011;8462;53.156;8.220;2023-03-23T07:20:21;5.13;;;1.77;;
7657;SDS011;8462;53.156;8.220;2023-03-23T07:22:48;5.03;;;1.80;;
7657;SDS011;8462;53.156;8.220;2023-03-23T07:25:26;4.27;;;1.50;;
7657;SDS011;8462;53.156;8.220;2023-03-23T07:27:58;7.17;;;2.03;;
7657;SDS011;8462;53.156;8.220;2023-03-23T07:30:25;3.10;;;1.60;;
7657;SDS011;8462;53.156;8.220;2023-03-23T07:32:54;5.53;;;1.43;;
7657;SDS011;8462;53.156;8.220;2023-03-23T07:35:21;3.53;;;1.67;;
7657;SDS011;8462;53.156;8.220;2023-03-23T07:37:57;3.40;;;1.60;;
7657;SDS011;8462;53.156;8.220;2023-03-23T07:40:24;5.70;;;1.97;;
7657;SDS011;8462;53.156;8.220;2023-03-23T07:42:54;4.17;;;1.43;;
7657;SDS011;8462;53.156;8.220;2023-03-23T07:45:42;5.37;;;1.50;;
7657;SDS011;8462;53.156;8.220;2023-03-23T07:48:12;3.93;;;1.97;;
7657;SDS011;8462;53.156;8.220;2023-03-23T07:50:39;3.50;;;1.80;;
7657;SDS011;8462;53.156;8.220;2023-03-23T07:53:09;2.13;;;1.60;;
7657;SDS011;8462;53.156;8.220;2023-03-23T07:55:37;8.43;;;2.00;;
7657;SDS011;8462;53.156;8.220;2023-03-23T07:58:24;5.37;;;1.77;;
7657;SDS011;8462;53.156;8.220;2023-03-23T08:00:56;6.70;;;1.90;;
7657;SDS011;8462;53.156;8.220;2023-03-23T08:03:26;5.87;;;2.23;;
7657;SDS011;8462;53.156;8.220;2023-03-23T08:06:08;5.43;;;2.20;;
7657;SDS011;8462;53.156;8.220;2023-03-23T08:08:49;4.37;;;1.60;;
7657;SDS011;8462;53.156;8.220;2023-03-23T08:11:51;3.70;;;2.13;;
7657;SDS011;8462;53.156;8.220;2023-03-23T08:14:37;7.17;;;2.10;;
7657;SDS011;8462;53.156;8.220;2023-03-23T08:17:26;3.87;;;2.40;;
7657;SDS011;8462;53.156;8.220;2023-03-23T08:20:14;7.33;;;2.67;;
7657;SDS011;8462;53.156;8.220;2023-03-23T08:23:01;6.07;;;2.07;;
7657;SDS011;8462;53.156;8.220;2023-03-23T08:25:56;5.97;;;2.33;;
7657;SDS011;8462;53.156;8.220;2023-03-23T08:28:45;8.90;;;1.90;;
7657;SDS011;8462;53.156;8.220;2023-03-23T08:31:31;4.57;;;1.90;;
7657;SDS011;8462;53.156;8.220;2023-03-23T08:34:01;7.63;;;2.10;;
7657;SDS011;8462;53.156;8.220;2023-03-23T08:36:46;5.80;;;1.87;;
7657;SDS011;8462;53.156;8.220;2023-03-23T08:39:33;6.43;;;2.03;;
7657;SDS011;8462;53.156;8.220;2023-03-23T08:42:19;8.53;;;1.90;;
7657;SDS011;8462;53.156;8.220;2023-03-23T08:45:15;9.83;;;2.60;;
7657;SDS011;8462;53.156;8.220;2023-03-23T08:47:59;7.70;;;2.70;;
7657;SDS011;8462;53.156;8.220;2023-03-23T08:50:59;10.03;;;2.43;;
7657;SDS011;8462;53.156;8.220;2023-03-23T08:53:57;8.40;;;1.73;;
7657;SDS011;8462;53.156;8.220;2023-03-23T08:56:44;9.47;;;2.57;;
7657;SDS011;8462;53.156;8.220;2023-03-23T08:59:27;9.27;;;2.10;;
7657;SDS011;8462;53.156;8.220;2023-03-23T09:02:05;10.70;;;2.63;;
7657;SDS011;8462;53.156;8.220;2023-03-23T09:04:36;8.83;;;2.77;;
7657;SDS011;8462;53.156;8.220;2023-03-23T09:07:26;7.77;;;2.23;;
7657;SDS011;8462;53.156;8.220;2023-03-23T09:09:53;11.03;;;2.43;;
7657;SDS011;8462;53.156;8.220;2023-03-23T09:12:20;5.43;;;2.10;;
7657;SDS011;8462;53.156;8.220;2023-03-23T09:14:46;7.17;;;2.20;;
7657;SDS011;8462;53.156;8.220;2023-03-23T09:17:13;9.50;;;2.27;;
7657;SDS011;8462;53.156;8.220;2023-03-23T09:19:40;8.67;;;2.40;;
7657;SDS011;8462;53.156;8.220;2023-03-23T09:22:07;9.17;;;2.77;;
7657;SDS011;8462;53.156;8.220;2023-03-23T09:24:37;11.30;;;2.43;;
7657;SDS011;8462;53.156;8.220;2023-03-23T09:27:04;6.40;;;2.70;;
7657;SDS011;8462;53.156;8.220;2023-03-23T09:29:31;7.37;;;2.20;;
7657;SDS011;8462;53.156;8.220;2023-03-23T09:31:58;6.20;;;2.57;;
7657;SDS011;8462;53.156;8.220;2023-03-23T09:34:25;8.07;;;2.23;;
7657;SDS011;8462;53.156;8.220;2023-03-23T09:36:54;7.80;;;2.33;;
7657;SDS011;8462;53.156;8.220;2023-03-23T09:39:22;4.57;;;1.83;;
7657;SDS011;8462;53.156;8.220;2023-03-23T09:42:02;5.87;;;2.43;;
7657;SDS011;8462;53.156;8.220;2023-03-23T09:45:02;5.30;;;2.40;;
7657;SDS011;8462;53.156;8.220;2023-03-23T09:47:37;8.70;;;2.17;;
7657;SDS011;8462;53.156;8.220;2023-03-23T09:50:12;5.17;;;1.87;;
7657;SDS011;8462;53.156;8.220;2023-03-23T09:52:45;6.73;;;2.10;;
7657;SDS011;8462;53.156;8.220;2023-03-23T09:55:19;6.33;;;2.43;;
7657;SDS011;8462;53.156;8.220;2023-03-23T09:57:51;5.40;;;2.77;;
7657;SDS011;8462;53.156;8.220;2023-03-23T10:00:24;5.57;;;1.87;;
7657;SDS011;8462;53.156;8.220;2023-03-23T10:02:59;11.27;;;2.60;;
7657;SDS011;8462;53.156;8.220;2023-03-23T10:05:33;5.83;;;2.10;;
7657;SDS011;8462;53.156;8.220;2023-03-23T10:08:08;6.87;;;3.07;;
7657;SDS011;8462;53.156;8.220;2023-03-23T10:10:47;10.20;;;2.47;;
7657;SDS011;8462;53.156;8.220;2023-03-23T10:13:25;5.87;;;2.00;;
7657;SDS011;8462;53.156;8.220;2023-03-23T10:16:01;6.80;;;2.33;;
7657;SDS011;8462;53.156;8.220;2023-03-23T10:18:38;3.73;;;1.27;;
7657;SDS011;8462;53.156;8.220;2023-03-23T10:21:10;11.60;;;2.60;;
7657;SDS011;8462;53.156;8.220;2023-03-23T10:23:44;5.50;;;3.00;;
7657;SDS011;8462;53.156;8.220;2023-03-23T10:26:22;9.67;;;2.83;;
7657;SDS011;8462;53.156;8.220;2023-03-23T10:29:04;8.63;;;2.70;;
7657;SDS011;8462;53.156;8.220;2023-03-23T10:31:40;5.63;;;2.27;;
7657;SDS011;8462;53.156;8.220;2023-03-23T10:34:10;12.63;;;2.63;;
7657;SDS011;8462;53.156;8.220;2023-03-23T10:36:50;9.43;;;2.63;;
7657;SDS011;8462;53.156;8.220;2023-03-23T10:39:26;8.97;;;2.93;;
7657;SDS011;8462;53.156;8.220;2023-03-23T10:41:59;7.57;;;2.63;;
7657;SDS011;8462;53.156;8.220;2023-03-23T10:44:35;7.60;;;2.33;;
7657;SDS011;8462;53.156;8.220;2023-03-23T10:47:04;9.07;;;2.63;;
7657;SDS011;8462;53.156;8.220;2023-03-23T10:52:11;9.13;;;2.47;;
7657;SDS011;8462;53.156;8.220;2023-03-23T10:54:50;11.77;;;3.53;;
7657;SDS011;8462;53.156;8.220;2023-03-23T10:57:22;7.00;;;2.47;;
7657;SDS011;8462;53.156;8.220;2023-03-23T10:59:57;5.90;;;2.27;;
7657;SDS011;8462;53.156;8.220;2023-03-23T11:02:26;6.80;;;2.80;;
7657;SDS011;8462;53.156;8.220;2023-03-23T11:04:56;8.30;;;2.33;;
7657;SDS011;8462;53.156;8.220;2023-03-23T11:07:27;7.63;;;2.43;;
7657;SDS011;8462;53.156;8.220;2023-03-23T11:09:57;7.33;;;2.60;;
7657;SDS011;8462;53.156;8.220;2023-03-23T11:12:35;7.37;;;2.50;;
7657;SDS011;8462;53.156;8.220;2023-03-23T11:15:25;4.73;;;2.37;;
7657;SDS011;8462;53.156;8.220;2023-03-23T11:17:55;9.03;;;2.90;;
7657;SDS011;8462;53.156;8.220;2023-03-23T11:20:27;4.97;;;2.83;;
7657;SDS011;8462;53.156;8.220;2023-03-23T11:22:56;7.03;;;2.87;;
7657;SDS011;8462;53.156;8.220;2023-03-23T11:25:23;8.90;;;2.77;;
7657;SDS011;8462;53.156;8.220;2023-03-23T11:27:52;6.80;;;2.90;;
7657;SDS011;8462;53.156;8.220;2023-03-23T11:30:20;9.13;;;2.33;;
7657;SDS011;8462;53.156;8.220;2023-03-23T11:32:52;9.17;;;2.70;;
7657;SDS011;8462;53.156;8.220;2023-03-23T11:35:22;6.83;;;2.23;;
7657;SDS011;8462;53.156;8.220;2023-03-23T11:37:53;4.57;;;2.40;;
7657;SDS011;8462;53.156;8.220;2023-03-23T11:40:23;5.97;;;2.53;;
7657;SDS011;8462;53.156;8.220;2023-03-23T11:42:56;4.53;;;2.00;;
7657;SDS011;8462;53.156;8.220;2023-03-23T11:45:30;4.20;;;2.00;;
7657;SDS011;8462;53.156;8.220;2023-03-23T11:48:12;4.80;;;2.43;;
7657;SDS011;8462;53.156;8.220;2023-03-23T11:50:45;3.90;;;2.13;;
7657;SDS011;8462;53.156;8.220;2023-03-23T11:53:19;4.13;;;2.00;;
7657;SDS011;8462;53.156;8.220;2023-03-23T11:58:41;5.83;;;2.27;;
7657;SDS011;8462;53.156;8.220;2023-03-23T12:01:12;3.50;;;1.93;;
7657;SDS011;8462;53.156;8.220;2023-03-23T12:06:58;5.17;;;1.80;;
7657;SDS011;8462;53.156;8.220;2023-03-23T12:09:38;5.97;;;2.10;;
7657;SDS011;8462;53.156;8.220;2023-03-23T12:12:18;5.47;;;2.13;;
7657;SDS011;8462;53.156;8.220;2023-03-23T12:14:52;2.60;;;1.37;;
7657;SDS011;8462;53.156;8.220;2023-03-23T12:17:29;3.80;;;1.53;;
7657;SDS011;8462;53.156;8.220;2023-03-23T12:20:19;6.63;;;1.90;;
7657;SDS011;8462;53.156;8.220;2023-03-23T12:22:55;7.60;;;1.67;;
7657;SDS011;8462;53.156;8.220;2023-03-23T12:25:39;5.60;;;1.63;;
7657;SDS011;8462;53.156;8.220;2023-03-23T12:28:16;4.87;;;2.47;;
7657;SDS011;8462;53.156;8.220;2023-03-23T12:30:51;4.80;;;2.00;;
7657;SDS011;8462;53.156;8.220;2023-03-23T12:33:45;3.97;;;1.20;;
7657;SDS011;8462;53.156;8.220;2023-03-23T12:36:24;1.37;;;0.90;;
7657;SDS011;8462;53.156;8.220;2023-03-23T12:42:14;2.37;;;1.23;;
7657;SDS011;8462;53.156;8.220;2023-03-23T12:44:49;3.53;;;1.57;;
7657;SDS011;8462;53.156;8.220;2023-03-23T12:47:31;3.40;;;1.57;;
7657;SDS011;8462;53.156;8.220;2023-03-23T12:50:05;5.13;;;1.60;;
7657;SDS011;8462;53.156;8.220;2023-03-23T12:52:39;2.27;;;1.53;;
7657;SDS011;8462;53.156;8.220;2023-03-23T12:55:14;4.73;;;2.30;;
7657;SDS011;8462;53.156;8.220;2023-03-23T12:57:46;3.03;;;1.67;;
7657;SDS011;8462;53.156;8.220;2023-03-23T13:00:21;5.63;;;1.70;;
7657;SDS011;8462;53.156;8.220;2023-03-23T13:02:53;4.47;;;1.47;;
7657;SDS011;8462;53.156;8.220;2023-03-23T13:05:38;6.13;;;2.17;;
7657;SDS011;8462;53.156;8.220;2023-03-23T13:08:11;4.13;;;1.50;;
7657;SDS011;8462;53.156;8.220;2023-03-23T13:10:44;4.17;;;1.80;;
7657;SDS011;8462;53.156;8.220;2023-03-23T13:13:14;5.93;;;2.00;;
7657;SDS011;8462;53.156;8.220;2023-03-23T13:15:46;6.13;;;1.97;;
7657;SDS011;8462;53.156;8.220;2023-03-23T13:18:31;3.07;;;1.33;;
7657;SDS011;8462;53.156;8.220;2023-03-23T13:21:13;4.23;;;1.50;;
7657;SDS011;8462;53.156;8.220;2023-03-23T13:23:46;3.77;;;1.40;;
7657;SDS011;8462;53.156;8.220;2023-03-23T13:26:17;4.50;;;1.80;;
7657;SDS011;8462;53.156;8.220;2023-03-23T13:28:56;6.23;;;1.67;;
7657;SDS011;8462;53.156;8.220;2023-03-23T13:31:28;5.37;;;1.50;;
7657;SDS011;8462;53.156;8.220;2023-03-23T13:33:59;2.90;;;1.40;;
7657;SDS011;8462;53.156;8.220;2023-03-23T13:36:31;5.50;;;1.70;;
7657;SDS011;8462;53.156;8.220;2023-03-23T13:39:03;5.27;;;1.70;;
7657;SDS011;8462;53.156;8.220;2023-03-23T13:41:33;3.53;;;1.23;;
7657;SDS011;8462;53.156;8.220;2023-03-23T13:44:16;5.63;;;1.53;;
7657;SDS011;8462;53.156;8.220;2023-03-23T13:46:56;3.97;;;1.67;;
7657;SDS011;8462;53.156;8.220;2023-03-23T13:49:24;2.17;;;1.30;;
7657;SDS011;8462;53.156;8.220;2023-03-23T13:52:01;6.50;;;1.40;;
7657;SDS011;8462;53.156;8.220;2023-03-23T13:54:43;2.73;;;1.50;;
7657;SDS011;8462;53.156;8.220;2023-03-23T13:57:24;5.13;;;1.83;;
7657;SDS011;8462;53.156;8.220;2023-03-23T13:59:57;4.73;;;2.20;;
7657;SDS011;8462;53.156;8.220;2023-03-23T14:02:31;6.23;;;1.60;;
7657;SDS011;8462;53.156;8.220;2023-03-23T14:05:23;6.27;;;1.80;;
7657;SDS011;8462;53.156;8.220;2023-03-23T14:08:01;4.77;;;1.40;;
7657;SDS011;8462;53.156;8.220;2023-03-23T14:10:34;5.80;;;1.93;;
7657;SDS011;8462;53.156;8.220;2023-03-23T14:13:05;7.50;;;1.97;;
7657;SDS011;8462;53.156;8.220;2023-03-23T14:15:40;4.20;;;1.30;;
7657;SDS011;8462;53.156;8.220;2023-03-23T14:18:13;3.17;;;1.77;;
7657;SDS011;8462;53.156;8.220;2023-03-23T14:20:41;8.10;;;1.83;;
7657;SDS011;8462;53.156;8.220;2023-03-23T14:23:15;4.07;;;1.70;;
7657;SDS011;8462;53.156;8.220;2023-03-23T14:25:43;4.33;;;1.60;;
7657;SDS011;8462;53.156;8.220;2023-03-23T14:30:46;4.13;;;1.83;;
7657;SDS011;8462;53.156;8.220;2023-03-23T14:33:14;5.83;;;1.63;;
7657;SDS011;8462;53.156;8.220;2023-03-23T14:35:42;4.33;;;1.50;;
7657;SDS011;8462;53.156;8.220;2023-03-23T14:38:13;6.90;;;1.97;;
7657;SDS011;8462;53.156;8.220;2023-03-23T14:40:45;7.00;;;1.67;;
7657;SDS011;8462;53.156;8.220;2023-03-23T14:43:14;4.10;;;1.67;;
7657;SDS011;8462;53.156;8.220;2023-03-23T14:45:44;6.40;;;2.00;;
7657;SDS011;8462;53.156;8.220;2023-03-23T14:48:14;3.73;;;1.63;;
7657;SDS011;8462;53.156;8.220;2023-03-23T14:50:47;3.60;;;1.93;;
7657;SDS011;8462;53.156;8.220;2023-03-23T14:53:19;4.30;;;2.03;;
7657;SDS011;8462;53.156;8.220;2023-03-23T14:55:48;3.87;;;1.40;;
7657;SDS011;8462;53.156;8.220;2023-03-23T14:58:17;7.27;;;1.50;;
7657;SDS011;8462;53.156;8.220;2023-03-23T15:00:46;4.97;;;1.60;;
7657;SDS011;8462;53.156;8.220;2023-03-23T15:03:17;4.17;;;1.50;;
7657;SDS011;8462;53.156;8.220;2023-03-23T15:05:46;7.10;;;1.73;;
7657;SDS011;8462;53.156;8.220;2023-03-23T15:08:15;5.43;;;1.57;;
7657;SDS011;8462;53.156;8.220;2023-03-23T15:10:51;5.77;;;2.50;;
7657;SDS011;8462;53.156;8.220;2023-03-23T15:13:21;6.03;;;1.97;;
7657;SDS011;8462;53.156;8.220;2023-03-23T15:15:48;6.53;;;2.07;;
7657;SDS011;8462;53.156;8.220;2023-03-23T15:21:08;5.50;;;1.93;;
7657;SDS011;8462;53.156;8.220;2023-03-23T15:23:42;4.97;;;1.93;;
7657;SDS011;8462;53.156;8.220;2023-03-23T15:26:17;5.27;;;1.70;;
7657;SDS011;8462;53.156;8.220;2023-03-23T15:28:50;4.83;;;2.00;;
7657;SDS011;8462;53.156;8.220;2023-03-23T15:31:26;5.13;;;1.60;;
7657;SDS011;8462;53.156;8.220;2023-03-23T15:33:55;3.27;;;1.63;;
7657;SDS011;8462;53.156;8.220;2023-03-23T15:36:25;7.37;;;1.33;;
7657;SDS011;8462;53.156;8.220;2023-03-23T15:38:58;2.87;;;1.27;;
7657;SDS011;8462;53.156;8.220;2023-03-23T15:41:26;5.60;;;1.60;;
7657;SDS011;8462;53.156;8.220;2023-03-23T15:43:54;3.00;;;1.43;;
7657;SDS011;8462;53.156;8.220;2023-03-23T15:46:24;6.17;;;1.73;;
7657;SDS011;8462;53.156;8.220;2023-03-23T15:48:52;3.57;;;1.30;;
7657;SDS011;8462;53.156;8.220;2023-03-23T15:51:29;6.57;;;1.63;;
7657;SDS011;8462;53.156;8.220;2023-03-23T15:53:58;5.57;;;1.63;;
7657;SDS011;8462;53.156;8.220;2023-03-23T15:56:26;4.90;;;1.73;;
7657;SDS011;8462;53.156;8.220;2023-03-23T15:58:54;6.40;;;1.40;;
7657;SDS011;8462;53.156;8.220;2023-03-23T16:01:24;6.80;;;2.73;;
7657;SDS011;8462;53.156;8.220;2023-03-23T16:03:54;6.67;;;1.80;;
7657;SDS011;8462;53.156;8.220;2023-03-23T16:06:24;4.00;;;1.10;;
7657;SDS011;8462;53.156;8.220;2023-03-23T16:08:55;3.23;;;1.33;;
7657;SDS011;8462;53.156;8.220;2023-03-23T16:11:25;5.37;;;1.50;;
7657;SDS011;8462;53.156;8.220;2023-03-23T16:14:01;4.87;;;1.93;;
7657;SDS011;8462;53.156;8.220;2023-03-23T16:16:28;8.27;;;2.20;;
7657;SDS011;8462;53.156;8.220;2023-03-23T16:18:57;3.77;;;1.67;;
7657;SDS011;8462;53.156;8.220;2023-03-23T16:21:24;6.57;;;1.93;;